SUD013 VQPR-ZULS
Flight info
| Callsign | SUD013 |
|---|---|
| Flight time | 0h 53m |
| Altitude | 38000 |
| Route | SUBSU DCT BGD DCT TUMLI/N0452F370 DCT NONIM/K0835S1130 DCT RKZ DCT LXA |
| Aircraft | A320/M-SDFGHILORVWY/S |
Departure
| Time | 2026-04-26 15:11 |
|---|---|
| Airport | Paro International Airport (VQPR) |
Arrival
| Time | 2026-04-26 16:04 |
|---|---|
| Airport | Lhasa Gonggar International Airport (ZULS) |
| Time | Latitude | Longitude | Altitude | Speed | Heading |
|---|---|---|---|---|---|
| 2026-04-26 15:06 | 27.40636 | 89.42163 | 7268 ft | 0 kts | 331° |
| 2026-04-26 15:07 | 27.40679 | 89.42136 | 7273 ft | 6 kts | 330° |
| 2026-04-26 15:07 | 27.40732 | 89.42103 | 7273 ft | 9 kts | 330° |
| 2026-04-26 15:07 | 27.40780 | 89.42075 | 7273 ft | 6 kts | 340° |
| 2026-04-26 15:08 | 27.40806 | 89.42073 | 7275 ft | 0 kts | 13° |
| 2026-04-26 15:08 | 27.40820 | 89.42085 | 7274 ft | 7 kts | 42° |
| 2026-04-26 15:08 | 27.40824 | 89.42092 | 7275 ft | 0 kts | 51° |
| 2026-04-26 15:08 | 27.40824 | 89.42091 | 7275 ft | 0 kts | 51° |
| 2026-04-26 15:09 | 27.40826 | 89.42094 | 7275 ft | 5 kts | 51° |
| 2026-04-26 15:09 | 27.40834 | 89.42116 | 7281 ft | 7 kts | 77° |
| 2026-04-26 15:09 | 27.40805 | 89.42167 | 7282 ft | 0 kts | 146° |
| 2026-04-26 15:10 | 27.40798 | 89.42172 | 7280 ft | 9 kts | 148° |
| 2026-04-26 15:10 | 27.40651 | 89.42267 | 7276 ft | 68 kts | 150° |
| 2026-04-26 15:10 | 27.39650 | 89.42901 | 7259 ft | 173 kts | 152° |
| 2026-04-26 15:10 | 27.38551 | 89.43591 | 7900 ft | 185 kts | 152° |
| 2026-04-26 15:11 | 27.37356 | 89.44302 | 8613 ft | 204 kts | 153° |
| 2026-04-26 15:11 | 27.36022 | 89.45022 | 9466 ft | 222 kts | 158° |
| 2026-04-26 15:11 | 27.34495 | 89.45490 | 10398 ft | 234 kts | 176° |
| 2026-04-26 15:11 | 27.32864 | 89.45251 | 11192 ft | 242 kts | 204° |
| 2026-04-26 15:12 | 27.31559 | 89.44099 | 12269 ft | 243 kts | 230° |
| 2026-04-26 15:12 | 27.30683 | 89.42399 | 12948 ft | 265 kts | 250° |
| 2026-04-26 15:12 | 27.30321 | 89.40247 | 13342 ft | 299 kts | 267° |
| 2026-04-26 15:12 | 27.30229 | 89.37788 | 13783 ft | 329 kts | 268° |
| 2026-04-26 15:13 | 27.30048 | 89.35139 | 14331 ft | 350 kts | 262° |
| 2026-04-26 15:13 | 27.29523 | 89.32417 | 15100 ft | 362 kts | 254° |
| 2026-04-26 15:13 | 27.28596 | 89.29759 | 15929 ft | 368 kts | 243° |
| 2026-04-26 15:13 | 27.27208 | 89.27389 | 16757 ft | 365 kts | 231° |
| 2026-04-26 15:14 | 27.25384 | 89.25358 | 17525 ft | 375 kts | 221° |
| 2026-04-26 15:14 | 27.23303 | 89.23547 | 18265 ft | 382 kts | 219° |
| 2026-04-26 15:14 | 27.21153 | 89.21765 | 18867 ft | 386 kts | 218° |
| 2026-04-26 15:14 | 27.19047 | 89.19920 | 19439 ft | 389 kts | 225° |
| 2026-04-26 15:15 | 27.17188 | 89.17679 | 20006 ft | 387 kts | 233° |
| 2026-04-26 15:15 | 27.15631 | 89.15259 | 20560 ft | 387 kts | 239° |
| 2026-04-26 15:15 | 27.14186 | 89.12689 | 21051 ft | 392 kts | 240° |
| 2026-04-26 15:15 | 27.12755 | 89.10058 | 21492 ft | 396 kts | 240° |
| 2026-04-26 15:16 | 27.11284 | 89.07423 | 22001 ft | 400 kts | 239° |
| 2026-04-26 15:16 | 27.09751 | 89.04799 | 22432 ft | 404 kts | 238° |
| 2026-04-26 15:16 | 27.08137 | 89.02150 | 22902 ft | 408 kts | 237° |
| 2026-04-26 15:16 | 27.06496 | 88.99533 | 23373 ft | 412 kts | 236° |
| 2026-04-26 15:17 | 27.04850 | 88.96947 | 23770 ft | 415 kts | 236° |
| 2026-04-26 15:17 | 27.03714 | 88.95166 | 24036 ft | 417 kts | 236° |
| 2026-04-26 15:17 | 27.01483 | 88.91646 | 24495 ft | 420 kts | 236° |
| 2026-04-26 15:17 | 26.99793 | 88.88964 | 24883 ft | 422 kts | 237° |
| 2026-04-26 15:18 | 26.98105 | 88.86267 | 25226 ft | 424 kts | 237° |
| 2026-04-26 15:18 | 26.96479 | 88.83507 | 25585 ft | 425 kts | 239° |
| 2026-04-26 15:18 | 26.94924 | 88.80679 | 25955 ft | 427 kts | 240° |
| 2026-04-26 15:18 | 26.93409 | 88.77813 | 26321 ft | 429 kts | 241° |
| 2026-04-26 15:19 | 26.91898 | 88.74923 | 26666 ft | 431 kts | 241° |
| 2026-04-26 15:19 | 26.90371 | 88.72025 | 27024 ft | 433 kts | 241° |
| 2026-04-26 15:19 | 26.88820 | 88.69117 | 27373 ft | 435 kts | 240° |
| 2026-04-26 15:19 | 26.87247 | 88.66208 | 27713 ft | 438 kts | 240° |
| 2026-04-26 15:20 | 26.85903 | 88.63162 | 28028 ft | 436 kts | 253° |
| 2026-04-26 15:20 | 26.85321 | 88.59845 | 28393 ft | 435 kts | 268° |
| 2026-04-26 15:20 | 26.85571 | 88.56478 | 28711 ft | 436 kts | 283° |
| 2026-04-26 15:20 | 26.86645 | 88.53301 | 29053 ft | 440 kts | 298° |
| 2026-04-26 15:21 | 26.88495 | 88.50553 | 29278 ft | 446 kts | 314° |
| 2026-04-26 15:21 | 26.91005 | 88.48480 | 29542 ft | 453 kts | 330° |
| 2026-04-26 15:21 | 26.93980 | 88.47262 | 29810 ft | 460 kts | 346° |
| 2026-04-26 15:21 | 26.97189 | 88.47046 | 30063 ft | 468 kts | 3° |
| 2026-04-26 15:22 | 27.00388 | 88.47827 | 30305 ft | 474 kts | 13° |
| 2026-04-26 15:22 | 27.03561 | 88.48862 | 30508 ft | 476 kts | 14° |
| 2026-04-26 15:22 | 27.06735 | 88.49924 | 30777 ft | 476 kts | 14° |
| 2026-04-26 15:22 | 27.09903 | 88.50994 | 31095 ft | 475 kts | 14° |
| 2026-04-26 15:23 | 27.13075 | 88.52059 | 31434 ft | 475 kts | 14° |
| 2026-04-26 15:23 | 27.16238 | 88.53110 | 31745 ft | 474 kts | 14° |
| 2026-04-26 15:23 | 27.19403 | 88.54155 | 32065 ft | 474 kts | 14° |
| 2026-04-26 15:23 | 27.22566 | 88.55200 | 32352 ft | 474 kts | 14° |
| 2026-04-26 15:24 | 27.25725 | 88.56244 | 32701 ft | 474 kts | 14° |
| 2026-04-26 15:24 | 27.28888 | 88.57290 | 33004 ft | 473 kts | 14° |
| 2026-04-26 15:24 | 27.32006 | 88.58322 | 33312 ft | 473 kts | 14° |
| 2026-04-26 15:24 | 27.35161 | 88.59368 | 33663 ft | 473 kts | 14° |
| 2026-04-26 15:25 | 27.38311 | 88.60415 | 33958 ft | 472 kts | 14° |
| 2026-04-26 15:25 | 27.40443 | 88.61123 | 34138 ft | 472 kts | 14° |
| 2026-04-26 15:25 | 27.44616 | 88.62511 | 34516 ft | 472 kts | 14° |
| 2026-04-26 15:25 | 27.47759 | 88.63557 | 34820 ft | 471 kts | 14° |
| 2026-04-26 15:26 | 27.50904 | 88.64605 | 35090 ft | 471 kts | 13° |
| 2026-04-26 15:26 | 27.54040 | 88.65652 | 35361 ft | 470 kts | 13° |
| 2026-04-26 15:26 | 27.57167 | 88.66697 | 35635 ft | 469 kts | 13° |
| 2026-04-26 15:26 | 27.60296 | 88.67742 | 35922 ft | 468 kts | 13° |
| 2026-04-26 15:27 | 27.63419 | 88.68783 | 36186 ft | 468 kts | 13° |
| 2026-04-26 15:27 | 27.66538 | 88.69822 | 36397 ft | 468 kts | 13° |
| 2026-04-26 15:27 | 27.69656 | 88.70861 | 36712 ft | 467 kts | 13° |
| 2026-04-26 15:27 | 27.72774 | 88.71900 | 36932 ft | 467 kts | 13° |
| 2026-04-26 15:28 | 27.75871 | 88.72932 | 37085 ft | 464 kts | 13° |
| 2026-04-26 15:28 | 27.78974 | 88.73965 | 37262 ft | 466 kts | 13° |
| 2026-04-26 15:28 | 27.82083 | 88.75004 | 37411 ft | 467 kts | 13° |
| 2026-04-26 15:28 | 27.85202 | 88.76050 | 37572 ft | 467 kts | 13° |
| 2026-04-26 15:29 | 27.88317 | 88.77097 | 37765 ft | 467 kts | 13° |
| 2026-04-26 15:29 | 27.91429 | 88.78142 | 37944 ft | 467 kts | 13° |
| 2026-04-26 15:29 | 27.97664 | 88.80237 | 38052 ft | 467 kts | 13° |
| 2026-04-26 15:30 | 28.03885 | 88.82325 | 38047 ft | 466 kts | 13° |
| 2026-04-26 15:30 | 28.10110 | 88.84413 | 38032 ft | 467 kts | 13° |
| 2026-04-26 15:31 | 28.19458 | 88.87557 | 38036 ft | 466 kts | 13° |
| 2026-04-26 15:32 | 28.26725 | 88.90023 | 38041 ft | 466 kts | 13° |
| 2026-04-26 15:32 | 28.35005 | 88.92824 | 38019 ft | 466 kts | 13° |
| 2026-04-26 15:33 | 28.41224 | 88.94928 | 38030 ft | 467 kts | 13° |
| 2026-04-26 15:33 | 28.47447 | 88.97040 | 38010 ft | 467 kts | 13° |
| 2026-04-26 15:34 | 28.53667 | 88.99149 | 38015 ft | 467 kts | 13° |
| 2026-04-26 15:34 | 28.59893 | 89.01263 | 37995 ft | 467 kts | 13° |
| 2026-04-26 15:35 | 28.66113 | 89.03385 | 37988 ft | 467 kts | 13° |
| 2026-04-26 15:35 | 28.72340 | 89.05503 | 37972 ft | 467 kts | 13° |
| 2026-04-26 15:36 | 28.78571 | 89.07627 | 37935 ft | 468 kts | 13° |
| 2026-04-26 15:36 | 28.84805 | 89.09754 | 37936 ft | 468 kts | 13° |
| 2026-04-26 15:37 | 28.91048 | 89.11888 | 37915 ft | 468 kts | 13° |
| 2026-04-26 15:37 | 28.97297 | 89.14031 | 37932 ft | 469 kts | 14° |
| 2026-04-26 15:38 | 29.03544 | 89.16175 | 37912 ft | 469 kts | 13° |
| 2026-04-26 15:38 | 29.08738 | 89.17952 | 37907 ft | 469 kts | 14° |
| 2026-04-26 15:39 | 29.14982 | 89.20094 | 37889 ft | 468 kts | 14° |
| 2026-04-26 15:39 | 29.20169 | 89.21874 | 37892 ft | 468 kts | 14° |
| 2026-04-26 15:40 | 29.27423 | 89.24487 | 37990 ft | 466 kts | 19° |
| 2026-04-26 15:40 | 29.32858 | 89.28400 | 38197 ft | 468 kts | 52° |
| 2026-04-26 15:41 | 29.34321 | 89.31702 | 38179 ft | 468 kts | 77° |
| 2026-04-26 15:41 | 29.34672 | 89.35394 | 38095 ft | 468 kts | 90° |
| 2026-04-26 15:41 | 29.34660 | 89.39138 | 37968 ft | 470 kts | 92° |
| 2026-04-26 15:41 | 29.34572 | 89.42879 | 37868 ft | 469 kts | 91° |
| 2026-04-26 15:42 | 29.34690 | 89.50390 | 37919 ft | 472 kts | 89° |
| 2026-04-26 15:42 | 29.34711 | 89.57911 | 37940 ft | 472 kts | 92° |
| 2026-04-26 15:43 | 29.34488 | 89.65424 | 37938 ft | 471 kts | 93° |
| 2026-04-26 15:44 | 29.34047 | 89.76681 | 37953 ft | 471 kts | 93° |
| 2026-04-26 15:44 | 29.33687 | 89.87932 | 37949 ft | 471 kts | 92° |
| 2026-04-26 15:45 | 29.33337 | 89.99186 | 37953 ft | 471 kts | 92° |
| 2026-04-26 15:46 | 29.32969 | 90.10436 | 37931 ft | 472 kts | 93° |
| 2026-04-26 15:46 | 29.32750 | 90.16703 | 37924 ft | 473 kts | 93° |
| 2026-04-26 15:47 | 29.32323 | 90.29294 | 37309 ft | 474 kts | 92° |
| 2026-04-26 15:47 | 29.32191 | 90.33071 | 37039 ft | 475 kts | 93° |
| 2026-04-26 15:48 | 29.32058 | 90.36852 | 36782 ft | 475 kts | 92° |
| 2026-04-26 15:48 | 29.31924 | 90.40636 | 36525 ft | 475 kts | 92° |
| 2026-04-26 15:48 | 29.31786 | 90.44413 | 36279 ft | 475 kts | 92° |
| 2026-04-26 15:48 | 29.31647 | 90.48199 | 35593 ft | 477 kts | 92° |
| 2026-04-26 15:49 | 29.31506 | 90.52021 | 34629 ft | 482 kts | 92° |
| 2026-04-26 15:49 | 29.31362 | 90.55873 | 33652 ft | 485 kts | 92° |
| 2026-04-26 15:49 | 29.31218 | 90.59743 | 32575 ft | 487 kts | 92° |
| 2026-04-26 15:49 | 29.31075 | 90.63633 | 31414 ft | 491 kts | 92° |
| 2026-04-26 15:50 | 29.30928 | 90.67555 | 30300 ft | 494 kts | 93° |
| 2026-04-26 15:50 | 29.30780 | 90.71481 | 29476 ft | 490 kts | 93° |
| 2026-04-26 15:50 | 29.30632 | 90.75351 | 28700 ft | 484 kts | 93° |
| 2026-04-26 15:50 | 29.30486 | 90.79169 | 28141 ft | 474 kts | 93° |
| 2026-04-26 15:51 | 29.30342 | 90.82866 | 28036 ft | 456 kts | 93° |
| 2026-04-26 15:51 | 29.30203 | 90.86426 | 27925 ft | 439 kts | 93° |
| 2026-04-26 15:51 | 29.30067 | 90.89863 | 27766 ft | 426 kts | 93° |
| 2026-04-26 15:51 | 29.29934 | 90.93205 | 27568 ft | 414 kts | 93° |
| 2026-04-26 15:52 | 29.29806 | 90.96411 | 27391 ft | 403 kts | 93° |
| 2026-04-26 15:52 | 29.29659 | 90.99617 | 27210 ft | 392 kts | 97° |
| 2026-04-26 15:52 | 29.29223 | 91.02634 | 26740 ft | 390 kts | 101° |
| 2026-04-26 15:52 | 29.28888 | 91.04699 | 26364 ft | 391 kts | 102° |
| 2026-04-26 15:53 | 29.28219 | 91.08750 | 25673 ft | 391 kts | 102° |
| 2026-04-26 15:53 | 29.27711 | 91.11807 | 25154 ft | 391 kts | 102° |
| 2026-04-26 15:53 | 29.27204 | 91.14873 | 24631 ft | 392 kts | 102° |
| 2026-04-26 15:53 | 29.26699 | 91.17938 | 24108 ft | 392 kts | 102° |
| 2026-04-26 15:54 | 29.26195 | 91.21010 | 23588 ft | 393 kts | 102° |
| 2026-04-26 15:54 | 29.25770 | 91.23592 | 23102 ft | 393 kts | 102° |
| 2026-04-26 15:54 | 29.25262 | 91.26666 | 22564 ft | 392 kts | 102° |
| 2026-04-26 15:54 | 29.24755 | 91.29728 | 22044 ft | 391 kts | 102° |
| 2026-04-26 15:55 | 29.24250 | 91.32776 | 21524 ft | 389 kts | 102° |
| 2026-04-26 15:55 | 29.23743 | 91.35819 | 21001 ft | 388 kts | 102° |
| 2026-04-26 15:55 | 29.23254 | 91.38850 | 20558 ft | 385 kts | 99° |
| 2026-04-26 15:55 | 29.23372 | 91.41853 | 20407 ft | 376 kts | 75° |
| 2026-04-26 15:56 | 29.24547 | 91.44458 | 20201 ft | 366 kts | 47° |
| 2026-04-26 15:56 | 29.26528 | 91.46155 | 20022 ft | 351 kts | 19° |
| 2026-04-26 15:56 | 29.28850 | 91.46618 | 19868 ft | 332 kts | 351° |
| 2026-04-26 15:56 | 29.30946 | 91.45816 | 19760 ft | 310 kts | 321° |
| 2026-04-26 15:57 | 29.32302 | 91.44046 | 19644 ft | 289 kts | 290° |
| 2026-04-26 15:57 | 29.32594 | 91.41881 | 19539 ft | 269 kts | 257° |
| 2026-04-26 15:57 | 29.31829 | 91.40005 | 19455 ft | 260 kts | 232° |
| 2026-04-26 15:57 | 29.31123 | 91.38902 | 19384 ft | 259 kts | 240° |
| 2026-04-26 15:58 | 29.30414 | 91.36279 | 19069 ft | 261 kts | 263° |
| 2026-04-26 15:58 | 29.30443 | 91.34195 | 18734 ft | 264 kts | 277° |
| 2026-04-26 15:58 | 29.30668 | 91.32104 | 18384 ft | 265 kts | 270° |
| 2026-04-26 15:58 | 29.30681 | 91.29969 | 17788 ft | 275 kts | 267° |
| 2026-04-26 15:59 | 29.30634 | 91.27736 | 17196 ft | 284 kts | 267° |
| 2026-04-26 15:59 | 29.30601 | 91.25462 | 16789 ft | 287 kts | 268° |
| 2026-04-26 15:59 | 29.30575 | 91.23169 | 16411 ft | 288 kts | 268° |
| 2026-04-26 15:59 | 29.30548 | 91.20870 | 16027 ft | 290 kts | 268° |
| 2026-04-26 16:00 | 29.30519 | 91.18555 | 15658 ft | 291 kts | 268° |
| 2026-04-26 16:00 | 29.30489 | 91.16231 | 15292 ft | 293 kts | 269° |
| 2026-04-26 16:00 | 29.30460 | 91.13895 | 14928 ft | 294 kts | 269° |
| 2026-04-26 16:00 | 29.30430 | 91.11545 | 14560 ft | 295 kts | 269° |
| 2026-04-26 16:01 | 29.30399 | 91.09203 | 14204 ft | 293 kts | 269° |
| 2026-04-26 16:01 | 29.30368 | 91.06900 | 13861 ft | 284 kts | 270° |
| 2026-04-26 16:01 | 29.30338 | 91.04701 | 13599 ft | 266 kts | 270° |
| 2026-04-26 16:01 | 29.30310 | 91.02665 | 13349 ft | 248 kts | 270° |
| 2026-04-26 16:02 | 29.30284 | 91.00765 | 13108 ft | 230 kts | 270° |
| 2026-04-26 16:02 | 29.30260 | 90.98984 | 12736 ft | 217 kts | 270° |
| 2026-04-26 16:02 | 29.30236 | 90.97302 | 12393 ft | 205 kts | 270° |
| 2026-04-26 16:02 | 29.30221 | 90.96244 | 12167 ft | 196 kts | 270° |
| 2026-04-26 16:03 | 29.30192 | 90.94246 | 11799 ft | 179 kts | 270° |
| 2026-04-26 16:03 | 29.30168 | 90.92860 | 11682 ft | 168 kts | 271° |
| 2026-04-26 16:03 | 29.30137 | 90.91552 | 11603 ft | 168 kts | 270° |
| 2026-04-26 16:03 | 29.30113 | 90.90237 | 11530 ft | 152 kts | 271° |
| 2026-04-26 16:04 | 29.30142 | 90.89371 | 11537 ft | 68 kts | 272° |
| 2026-04-26 16:04 | 29.30150 | 90.89165 | 11527 ft | 0 kts | 272° |
| 2026-04-26 16:05 | 29.30148 | 90.89146 | 11529 ft | 4 kts | 259° |
| 2026-04-26 16:05 | 29.30148 | 90.89145 | 11529 ft | 0 kts | 259° |
| 2026-04-26 16:08 | 29.30141 | 90.89119 | 11536 ft | 4 kts | 257° |
| 2026-04-26 16:09 | 29.30138 | 90.89098 | 11529 ft | 7 kts | 259° |
| 2026-04-26 16:09 | 29.30133 | 90.89069 | 11533 ft | 0 kts | 259° |